sensor_id;sensor_type;location;lat;lon;timestamp;P1;durP1;ratioP1;P2;durP2;ratioP2
56136;SDS011;42008;52.934;5.884;2023-01-23T00:01:35;19.57;;;9.27;;
56136;SDS011;42008;52.934;5.884;2023-01-23T00:04:03;20.83;;;9.07;;
56136;SDS011;42008;52.934;5.884;2023-01-23T00:06:29;20.30;;;9.53;;
56136;SDS011;42008;52.934;5.884;2023-01-23T00:08:54;18.37;;;9.23;;
56136;SDS011;42008;52.934;5.884;2023-01-23T00:11:21;22.53;;;9.70;;
56136;SDS011;42008;52.934;5.884;2023-01-23T00:13:50;20.73;;;8.90;;
56136;SDS011;42008;52.934;5.884;2023-01-23T00:16:17;20.80;;;9.43;;
56136;SDS011;42008;52.934;5.884;2023-01-23T00:18:44;17.97;;;9.50;;
56136;SDS011;42008;52.934;5.884;2023-01-23T00:21:12;17.90;;;9.90;;
56136;SDS011;42008;52.934;5.884;2023-01-23T00:23:43;21.67;;;9.07;;
56136;SDS011;42008;52.934;5.884;2023-01-23T00:26:12;22.50;;;9.00;;
56136;SDS011;42008;52.934;5.884;2023-01-23T00:28:45;25.13;;;9.60;;
56136;SDS011;42008;52.934;5.884;2023-01-23T00:31:22;19.43;;;9.47;;
56136;SDS011;42008;52.934;5.884;2023-01-23T00:33:52;24.63;;;9.83;;
56136;SDS011;42008;52.934;5.884;2023-01-23T00:36:19;23.57;;;9.50;;
56136;SDS011;42008;52.934;5.884;2023-01-23T00:38:44;19.47;;;9.83;;
56136;SDS011;42008;52.934;5.884;2023-01-23T00:41:10;23.33;;;10.23;;
56136;SDS011;42008;52.934;5.884;2023-01-23T00:43:36;22.93;;;11.20;;
56136;SDS011;42008;52.934;5.884;2023-01-23T00:46:02;20.63;;;8.80;;
56136;SDS011;42008;52.934;5.884;2023-01-23T00:48:28;23.20;;;9.70;;
56136;SDS011;42008;52.934;5.884;2023-01-23T00:50:54;19.30;;;9.37;;
56136;SDS011;42008;52.934;5.884;2023-01-23T00:53:20;22.60;;;9.63;;
56136;SDS011;42008;52.934;5.884;2023-01-23T00:55:45;15.77;;;9.30;;
56136;SDS011;42008;52.934;5.884;2023-01-23T00:58:11;17.13;;;9.57;;
56136;SDS011;42008;52.934;5.884;2023-01-23T01:00:37;19.80;;;9.47;;
56136;SDS011;42008;52.934;5.884;2023-01-23T01:03:04;15.07;;;9.00;;
56136;SDS011;42008;52.934;5.884;2023-01-23T01:05:30;17.63;;;9.70;;
56136;SDS011;42008;52.934;5.884;2023-01-23T01:07:56;23.47;;;10.00;;
56136;SDS011;42008;52.934;5.884;2023-01-23T01:10:22;22.00;;;9.97;;
56136;SDS011;42008;52.934;5.884;2023-01-23T01:12:47;18.13;;;10.03;;
56136;SDS011;42008;52.934;5.884;2023-01-23T01:15:13;17.90;;;9.90;;
56136;SDS011;42008;52.934;5.884;2023-01-23T01:17:39;25.10;;;10.03;;
56136;SDS011;42008;52.934;5.884;2023-01-23T01:20:05;21.77;;;9.63;;
56136;SDS011;42008;52.934;5.884;2023-01-23T01:22:31;24.87;;;9.87;;
56136;SDS011;42008;52.934;5.884;2023-01-23T01:24:57;21.90;;;9.90;;
56136;SDS011;42008;52.934;5.884;2023-01-23T01:27:23;21.93;;;9.97;;
56136;SDS011;42008;52.934;5.884;2023-01-23T01:29:49;22.77;;;9.97;;
56136;SDS011;42008;52.934;5.884;2023-01-23T01:32:15;20.70;;;9.90;;
56136;SDS011;42008;52.934;5.884;2023-01-23T01:34:40;21.03;;;9.43;;
56136;SDS011;42008;52.934;5.884;2023-01-23T01:37:06;25.03;;;10.70;;
56136;SDS011;42008;52.934;5.884;2023-01-23T01:39:31;21.23;;;9.93;;
56136;SDS011;42008;52.934;5.884;2023-01-23T01:41:57;25.23;;;10.70;;
56136;SDS011;42008;52.934;5.884;2023-01-23T01:44:23;18.30;;;10.60;;
56136;SDS011;42008;52.934;5.884;2023-01-23T01:46:49;21.90;;;10.17;;
56136;SDS011;42008;52.934;5.884;2023-01-23T01:49:25;20.90;;;10.50;;
56136;SDS011;42008;52.934;5.884;2023-01-23T01:52:00;22.40;;;11.50;;
56136;SDS011;42008;52.934;5.884;2023-01-23T01:54:30;27.33;;;11.17;;
56136;SDS011;42008;52.934;5.884;2023-01-23T01:57:03;24.55;;;11.18;;
56136;SDS011;42008;52.934;5.884;2023-01-23T01:59:56;19.97;;;10.23;;
56136;SDS011;42008;52.934;5.884;2023-01-23T02:04:58;20.93;;;10.03;;
56136;SDS011;42008;52.934;5.884;2023-01-23T02:07:28;19.60;;;11.23;;
56136;SDS011;42008;52.934;5.884;2023-01-23T02:09:59;21.33;;;10.43;;
56136;SDS011;42008;52.934;5.884;2023-01-23T02:12:28;24.47;;;10.63;;
56136;SDS011;42008;52.934;5.884;2023-01-23T02:14:55;20.30;;;10.30;;
56136;SDS011;42008;52.934;5.884;2023-01-23T02:17:21;28.57;;;11.67;;
56136;SDS011;42008;52.934;5.884;2023-01-23T02:27:35;26.27;;;11.83;;
56136;SDS011;42008;52.934;5.884;2023-01-23T02:30:00;22.37;;;11.73;;
56136;SDS011;42008;52.934;5.884;2023-01-23T02:32:27;22.17;;;11.87;;
56136;SDS011;42008;52.934;5.884;2023-01-23T02:34:53;24.87;;;12.13;;
56136;SDS011;42008;52.934;5.884;2023-01-23T02:37:21;22.50;;;12.47;;
56136;SDS011;42008;52.934;5.884;2023-01-23T02:39:52;23.73;;;12.13;;
56136;SDS011;42008;52.934;5.884;2023-01-23T02:42:18;21.13;;;12.17;;
56136;SDS011;42008;52.934;5.884;2023-01-23T02:44:45;23.83;;;12.10;;
56136;SDS011;42008;52.934;5.884;2023-01-23T02:47:11;24.57;;;12.67;;
56136;SDS011;42008;52.934;5.884;2023-01-23T02:49:40;22.07;;;12.17;;
56136;SDS011;42008;52.934;5.884;2023-01-23T02:52:07;21.53;;;12.67;;
56136;SDS011;42008;52.934;5.884;2023-01-23T02:54:33;27.50;;;13.57;;
56136;SDS011;42008;52.934;5.884;2023-01-23T02:56:59;27.10;;;12.43;;
56136;SDS011;42008;52.934;5.884;2023-01-23T02:59:25;22.33;;;13.10;;
56136;SDS011;42008;52.934;5.884;2023-01-23T03:02:09;23.47;;;12.67;;
56136;SDS011;42008;52.934;5.884;2023-01-23T03:04:35;23.37;;;12.37;;
56136;SDS011;42008;52.934;5.884;2023-01-23T03:07:01;28.80;;;13.60;;
56136;SDS011;42008;52.934;5.884;2023-01-23T03:09:27;26.27;;;12.40;;
56136;SDS011;42008;52.934;5.884;2023-01-23T03:11:52;28.13;;;13.17;;
56136;SDS011;42008;52.934;5.884;2023-01-23T03:14:19;27.87;;;12.87;;
56136;SDS011;42008;52.934;5.884;2023-01-23T03:16:46;21.73;;;12.03;;
56136;SDS011;42008;52.934;5.884;2023-01-23T03:19:16;23.87;;;12.23;;
56136;SDS011;42008;52.934;5.884;2023-01-23T03:21:42;27.53;;;12.83;;
56136;SDS011;42008;52.934;5.884;2023-01-23T03:24:09;24.53;;;13.17;;
56136;SDS011;42008;52.934;5.884;2023-01-23T03:26:37;24.27;;;13.13;;
56136;SDS011;42008;52.934;5.884;2023-01-23T03:29:03;22.87;;;13.40;;
56136;SDS011;42008;52.934;5.884;2023-01-23T03:31:48;22.20;;;13.30;;
56136;SDS011;42008;52.934;5.884;2023-01-23T03:34:13;30.53;;;14.27;;
56136;SDS011;42008;52.934;5.884;2023-01-23T03:36:41;25.30;;;12.80;;
56136;SDS011;42008;52.934;5.884;2023-01-23T03:39:08;30.03;;;13.97;;
56136;SDS011;42008;52.934;5.884;2023-01-23T03:41:52;28.73;;;13.53;;
56136;SDS011;42008;52.934;5.884;2023-01-23T03:44:18;23.60;;;14.27;;
56136;SDS011;42008;52.934;5.884;2023-01-23T03:46:49;25.60;;;13.77;;
56136;SDS011;42008;52.934;5.884;2023-01-23T03:49:16;29.70;;;15.40;;
56136;SDS011;42008;52.934;5.884;2023-01-23T03:51:42;31.43;;;14.70;;
56136;SDS011;42008;52.934;5.884;2023-01-23T03:54:08;28.07;;;15.47;;
56136;SDS011;42008;52.934;5.884;2023-01-23T03:56:34;32.07;;;15.57;;
56136;SDS011;42008;52.934;5.884;2023-01-23T03:59:00;31.57;;;15.47;;
56136;SDS011;42008;52.934;5.884;2023-01-23T04:01:26;28.37;;;15.43;;
56136;SDS011;42008;52.934;5.884;2023-01-23T04:03:51;26.73;;;15.87;;
56136;SDS011;42008;52.934;5.884;2023-01-23T04:06:17;28.00;;;15.70;;
56136;SDS011;42008;52.934;5.884;2023-01-23T04:08:43;26.87;;;15.73;;
56136;SDS011;42008;52.934;5.884;2023-01-23T04:11:09;28.93;;;15.77;;
56136;SDS011;42008;52.934;5.884;2023-01-23T04:13:35;30.33;;;15.47;;
56136;SDS011;42008;52.934;5.884;2023-01-23T04:16:01;31.70;;;15.70;;
56136;SDS011;42008;52.934;5.884;2023-01-23T04:18:28;25.70;;;16.37;;
56136;SDS011;42008;52.934;5.884;2023-01-23T04:20:54;29.23;;;16.40;;
56136;SDS011;42008;52.934;5.884;2023-01-23T04:23:20;28.20;;;16.13;;
56136;SDS011;42008;52.934;5.884;2023-01-23T04:25:47;28.73;;;17.07;;
56136;SDS011;42008;52.934;5.884;2023-01-23T04:28:12;34.07;;;18.00;;
56136;SDS011;42008;52.934;5.884;2023-01-23T04:30:38;30.00;;;16.93;;
56136;SDS011;42008;52.934;5.884;2023-01-23T04:33:04;30.37;;;17.10;;
56136;SDS011;42008;52.934;5.884;2023-01-23T04:35:30;30.13;;;17.17;;
56136;SDS011;42008;52.934;5.884;2023-01-23T04:37:55;30.50;;;16.37;;
56136;SDS011;42008;52.934;5.884;2023-01-23T04:40:21;28.70;;;17.37;;
56136;SDS011;42008;52.934;5.884;2023-01-23T04:42:46;32.47;;;17.13;;
56136;SDS011;42008;52.934;5.884;2023-01-23T04:45:12;29.33;;;17.27;;
56136;SDS011;42008;52.934;5.884;2023-01-23T04:47:38;34.43;;;17.20;;
56136;SDS011;42008;52.934;5.884;2023-01-23T04:50:03;28.83;;;16.83;;
56136;SDS011;42008;52.934;5.884;2023-01-23T04:52:29;31.83;;;17.20;;
56136;SDS011;42008;52.934;5.884;2023-01-23T04:54:55;36.43;;;18.30;;
56136;SDS011;42008;52.934;5.884;2023-01-23T04:57:21;32.00;;;16.20;;
56136;SDS011;42008;52.934;5.884;2023-01-23T04:59:47;27.97;;;16.17;;
56136;SDS011;42008;52.934;5.884;2023-01-23T05:02:12;28.13;;;17.10;;
56136;SDS011;42008;52.934;5.884;2023-01-23T05:04:38;34.40;;;17.47;;
56136;SDS011;42008;52.934;5.884;2023-01-23T05:07:03;35.17;;;17.17;;
56136;SDS011;42008;52.934;5.884;2023-01-23T05:09:29;31.47;;;17.17;;
56136;SDS011;42008;52.934;5.884;2023-01-23T05:11:55;32.27;;;17.30;;
56136;SDS011;42008;52.934;5.884;2023-01-23T05:14:20;32.50;;;17.43;;
56136;SDS011;42008;52.934;5.884;2023-01-23T05:16:48;30.97;;;18.07;;
56136;SDS011;42008;52.934;5.884;2023-01-23T05:19:13;32.80;;;18.97;;
56136;SDS011;42008;52.934;5.884;2023-01-23T05:21:39;32.70;;;17.60;;
56136;SDS011;42008;52.934;5.884;2023-01-23T05:24:05;32.80;;;16.80;;
56136;SDS011;42008;52.934;5.884;2023-01-23T05:26:31;30.60;;;17.67;;
56136;SDS011;42008;52.934;5.884;2023-01-23T05:28:56;32.67;;;18.13;;
56136;SDS011;42008;52.934;5.884;2023-01-23T05:31:22;36.50;;;17.73;;
56136;SDS011;42008;52.934;5.884;2023-01-23T05:33:47;29.30;;;17.10;;
56136;SDS011;42008;52.934;5.884;2023-01-23T05:36:13;31.23;;;17.40;;
56136;SDS011;42008;52.934;5.884;2023-01-23T05:38:39;31.80;;;17.20;;
56136;SDS011;42008;52.934;5.884;2023-01-23T05:41:04;31.87;;;18.23;;
56136;SDS011;42008;52.934;5.884;2023-01-23T05:43:30;32.63;;;17.80;;
56136;SDS011;42008;52.934;5.884;2023-01-23T05:45:57;35.37;;;18.70;;
56136;SDS011;42008;52.934;5.884;2023-01-23T05:48:24;33.53;;;18.07;;
56136;SDS011;42008;52.934;5.884;2023-01-23T05:50:50;38.90;;;18.87;;
56136;SDS011;42008;52.934;5.884;2023-01-23T05:53:16;34.40;;;18.97;;
56136;SDS011;42008;52.934;5.884;2023-01-23T05:55:41;35.57;;;19.00;;
56136;SDS011;42008;52.934;5.884;2023-01-23T05:58:07;34.43;;;18.60;;
56136;SDS011;42008;52.934;5.884;2023-01-23T06:00:32;28.83;;;17.73;;
56136;SDS011;42008;52.934;5.884;2023-01-23T06:02:59;29.17;;;17.93;;
56136;SDS011;42008;52.934;5.884;2023-01-23T06:05:25;31.53;;;18.93;;
56136;SDS011;42008;52.934;5.884;2023-01-23T06:07:50;34.27;;;19.73;;
56136;SDS011;42008;52.934;5.884;2023-01-23T06:10:16;33.90;;;19.17;;
56136;SDS011;42008;52.934;5.884;2023-01-23T06:12:42;33.00;;;19.80;;
56136;SDS011;42008;52.934;5.884;2023-01-23T06:15:07;32.40;;;18.73;;
56136;SDS011;42008;52.934;5.884;2023-01-23T06:17:33;36.00;;;19.63;;
56136;SDS011;42008;52.934;5.884;2023-01-23T06:19:59;34.20;;;20.00;;
56136;SDS011;42008;52.934;5.884;2023-01-23T06:22:25;35.83;;;19.93;;
56136;SDS011;42008;52.934;5.884;2023-01-23T06:24:50;40.87;;;20.03;;
56136;SDS011;42008;52.934;5.884;2023-01-23T06:27:16;40.67;;;21.10;;
56136;SDS011;42008;52.934;5.884;2023-01-23T06:29:42;33.10;;;20.43;;
56136;SDS011;42008;52.934;5.884;2023-01-23T06:32:08;38.73;;;21.00;;
56136;SDS011;42008;52.934;5.884;2023-01-23T06:34:33;35.17;;;21.53;;
56136;SDS011;42008;52.934;5.884;2023-01-23T06:37:00;34.33;;;21.03;;
56136;SDS011;42008;52.934;5.884;2023-01-23T06:39:26;37.57;;;21.40;;
56136;SDS011;42008;52.934;5.884;2023-01-23T06:41:54;34.57;;;20.47;;
56136;SDS011;42008;52.934;5.884;2023-01-23T06:44:20;34.27;;;20.97;;
56136;SDS011;42008;52.934;5.884;2023-01-23T06:46:46;33.83;;;19.23;;
56136;SDS011;42008;52.934;5.884;2023-01-23T06:49:11;37.80;;;20.83;;
56136;SDS011;42008;52.934;5.884;2023-01-23T06:51:37;36.77;;;20.83;;
56136;SDS011;42008;52.934;5.884;2023-01-23T06:54:03;35.47;;;21.00;;
56136;SDS011;42008;52.934;5.884;2023-01-23T06:56:28;35.50;;;20.90;;
56136;SDS011;42008;52.934;5.884;2023-01-23T06:58:54;34.63;;;20.57;;
56136;SDS011;42008;52.934;5.884;2023-01-23T07:01:20;34.10;;;19.83;;
56136;SDS011;42008;52.934;5.884;2023-01-23T07:03:46;38.17;;;20.23;;
56136;SDS011;42008;52.934;5.884;2023-01-23T07:06:12;42.07;;;20.50;;
56136;SDS011;42008;52.934;5.884;2023-01-23T07:08:39;39.47;;;22.10;;
56136;SDS011;42008;52.934;5.884;2023-01-23T07:11:05;38.40;;;21.10;;
56136;SDS011;42008;52.934;5.884;2023-01-23T07:13:31;37.07;;;21.23;;
56136;SDS011;42008;52.934;5.884;2023-01-23T07:15:57;40.27;;;19.67;;
56136;SDS011;42008;52.934;5.884;2023-01-23T07:18:23;35.67;;;20.30;;
56136;SDS011;42008;52.934;5.884;2023-01-23T07:20:52;37.83;;;21.17;;
56136;SDS011;42008;52.934;5.884;2023-01-23T07:23:18;31.43;;;20.57;;
56136;SDS011;42008;52.934;5.884;2023-01-23T07:25:44;38.10;;;20.40;;
56136;SDS011;42008;52.934;5.884;2023-01-23T07:28:09;36.83;;;22.43;;
56136;SDS011;42008;52.934;5.884;2023-01-23T07:30:35;33.37;;;20.47;;
56136;SDS011;42008;52.934;5.884;2023-01-23T07:33:01;35.57;;;21.17;;
56136;SDS011;42008;52.934;5.884;2023-01-23T07:35:27;35.97;;;22.27;;
56136;SDS011;42008;52.934;5.884;2023-01-23T07:37:52;38.33;;;22.00;;
56136;SDS011;42008;52.934;5.884;2023-01-23T07:40:18;32.67;;;20.83;;
56136;SDS011;42008;52.934;5.884;2023-01-23T07:42:44;32.60;;;21.63;;
56136;SDS011;42008;52.934;5.884;2023-01-23T07:45:11;37.40;;;21.23;;
56136;SDS011;42008;52.934;5.884;2023-01-23T07:47:37;36.53;;;20.60;;
56136;SDS011;42008;52.934;5.884;2023-01-23T07:50:09;37.17;;;21.63;;
56136;SDS011;42008;52.934;5.884;2023-01-23T07:52:36;34.53;;;22.33;;
56136;SDS011;42008;52.934;5.884;2023-01-23T07:55:03;34.13;;;21.20;;
56136;SDS011;42008;52.934;5.884;2023-01-23T07:57:29;31.53;;;20.27;;
56136;SDS011;42008;52.934;5.884;2023-01-23T07:59:55;37.40;;;22.30;;
56136;SDS011;42008;52.934;5.884;2023-01-23T08:02:20;33.17;;;21.30;;
56136;SDS011;42008;52.934;5.884;2023-01-23T08:04:46;34.53;;;21.87;;
56136;SDS011;42008;52.934;5.884;2023-01-23T08:07:12;33.30;;;20.17;;
56136;SDS011;42008;52.934;5.884;2023-01-23T08:09:37;38.07;;;21.43;;
56136;SDS011;42008;52.934;5.884;2023-01-23T08:12:04;35.90;;;21.70;;
56136;SDS011;42008;52.934;5.884;2023-01-23T08:14:30;35.80;;;21.43;;
56136;SDS011;42008;52.934;5.884;2023-01-23T08:16:55;31.47;;;20.00;;
56136;SDS011;42008;52.934;5.884;2023-01-23T08:19:21;33.20;;;21.07;;
56136;SDS011;42008;52.934;5.884;2023-01-23T08:21:49;33.73;;;21.00;;
56136;SDS011;42008;52.934;5.884;2023-01-23T08:24:15;35.03;;;20.90;;
56136;SDS011;42008;52.934;5.884;2023-01-23T08:26:41;32.50;;;21.80;;
56136;SDS011;42008;52.934;5.884;2023-01-23T08:29:07;33.13;;;20.17;;
56136;SDS011;42008;52.934;5.884;2023-01-23T08:31:34;30.90;;;20.00;;
56136;SDS011;42008;52.934;5.884;2023-01-23T08:34:00;31.00;;;20.80;;
56136;SDS011;42008;52.934;5.884;2023-01-23T08:36:26;38.73;;;21.27;;
56136;SDS011;42008;52.934;5.884;2023-01-23T08:38:52;30.30;;;20.57;;
56136;SDS011;42008;52.934;5.884;2023-01-23T08:41:17;29.17;;;18.87;;
56136;SDS011;42008;52.934;5.884;2023-01-23T08:43:43;28.40;;;19.80;;
56136;SDS011;42008;52.934;5.884;2023-01-23T08:46:09;32.73;;;19.93;;
56136;SDS011;42008;52.934;5.884;2023-01-23T08:48:35;39.30;;;21.30;;
56136;SDS011;42008;52.934;5.884;2023-01-23T08:51:05;29.30;;;20.07;;
56136;SDS011;42008;52.934;5.884;2023-01-23T08:53:32;30.90;;;19.47;;
56136;SDS011;42008;52.934;5.884;2023-01-23T08:55:59;28.23;;;19.27;;
56136;SDS011;42008;52.934;5.884;2023-01-23T08:58:25;29.70;;;20.63;;
56136;SDS011;42008;52.934;5.884;2023-01-23T09:00:51;28.27;;;18.93;;
56136;SDS011;42008;52.934;5.884;2023-01-23T09:03:16;32.80;;;19.90;;
56136;SDS011;42008;52.934;5.884;2023-01-23T09:05:42;29.67;;;18.73;;
56136;SDS011;42008;52.934;5.884;2023-01-23T09:08:07;30.70;;;18.97;;
56136;SDS011;42008;52.934;5.884;2023-01-23T09:10:33;28.60;;;18.33;;
56136;SDS011;42008;52.934;5.884;2023-01-23T09:12:58;34.23;;;18.97;;
56136;SDS011;42008;52.934;5.884;2023-01-23T09:15:24;28.70;;;19.30;;
56136;SDS011;42008;52.934;5.884;2023-01-23T09:17:50;25.23;;;17.87;;
56136;SDS011;42008;52.934;5.884;2023-01-23T09:20:15;30.07;;;18.80;;
56136;SDS011;42008;52.934;5.884;2023-01-23T09:22:41;27.80;;;19.07;;
56136;SDS011;42008;52.934;5.884;2023-01-23T09:25:08;26.90;;;18.63;;
56136;SDS011;42008;52.934;5.884;2023-01-23T09:27:34;26.07;;;17.17;;
56136;SDS011;42008;52.934;5.884;2023-01-23T09:29:59;29.33;;;18.97;;
56136;SDS011;42008;52.934;5.884;2023-01-23T09:32:25;30.17;;;19.40;;
56136;SDS011;42008;52.934;5.884;2023-01-23T09:34:51;25.33;;;17.63;;
56136;SDS011;42008;52.934;5.884;2023-01-23T09:37:18;28.20;;;16.77;;
56136;SDS011;42008;52.934;5.884;2023-01-23T09:39:44;27.90;;;16.47;;
56136;SDS011;42008;52.934;5.884;2023-01-23T09:42:14;26.87;;;18.10;;
56136;SDS011;42008;52.934;5.884;2023-01-23T09:44:44;26.13;;;16.93;;
56136;SDS011;42008;52.934;5.884;2023-01-23T09:47:36;24.47;;;17.33;;
56136;SDS011;42008;52.934;5.884;2023-01-23T09:50:13;27.70;;;16.60;;
56136;SDS011;42008;52.934;5.884;2023-01-23T09:52:50;25.33;;;16.53;;
56136;SDS011;42008;52.934;5.884;2023-01-23T09:57:59;24.00;;;16.37;;
56136;SDS011;42008;52.934;5.884;2023-01-23T10:00:31;25.87;;;16.93;;
56136;SDS011;42008;52.934;5.884;2023-01-23T10:03:01;26.33;;;16.00;;
56136;SDS011;42008;52.934;5.884;2023-01-23T10:08:31;26.67;;;15.90;;
56136;SDS011;42008;52.934;5.884;2023-01-23T10:11:07;23.50;;;16.50;;
56136;SDS011;42008;52.934;5.884;2023-01-23T10:19:18;28.37;;;16.07;;
56136;SDS011;42008;52.934;5.884;2023-01-23T10:24:26;20.60;;;14.63;;
56136;SDS011;42008;52.934;5.884;2023-01-23T10:27:17;22.00;;;14.30;;
56136;SDS011;42008;52.934;5.884;2023-01-23T10:30:04;22.17;;;14.87;;
56136;SDS011;42008;52.934;5.884;2023-01-23T10:33:25;21.43;;;13.87;;
56136;SDS011;42008;52.934;5.884;2023-01-23T10:35:35;21.47;;;14.80;;
56136;SDS011;42008;52.934;5.884;2023-01-23T10:41:20;19.30;;;13.73;;
56136;SDS011;42008;52.934;5.884;2023-01-23T10:43:48;19.47;;;13.70;;
56136;SDS011;42008;52.934;5.884;2023-01-23T10:46:17;21.33;;;15.30;;
56136;SDS011;42008;52.934;5.884;2023-01-23T10:48:52;17.83;;;11.97;;
56136;SDS011;42008;52.934;5.884;2023-01-23T10:56:34;18.70;;;12.53;;
56136;SDS011;42008;52.934;5.884;2023-01-23T10:59:03;18.53;;;12.03;;
56136;SDS011;42008;52.934;5.884;2023-01-23T11:01:32;22.70;;;12.80;;
56136;SDS011;42008;52.934;5.884;2023-01-23T11:04:08;20.80;;;12.27;;
56136;SDS011;42008;52.934;5.884;2023-01-23T11:06:35;18.77;;;12.07;;
56136;SDS011;42008;52.934;5.884;2023-01-23T11:09:01;17.80;;;10.83;;
56136;SDS011;42008;52.934;5.884;2023-01-23T11:11:31;18.57;;;12.30;;
56136;SDS011;42008;52.934;5.884;2023-01-23T11:14:13;18.50;;;11.37;;
56136;SDS011;42008;52.934;5.884;2023-01-23T11:16:45;18.80;;;11.57;;
56136;SDS011;42008;52.934;5.884;2023-01-23T11:19:24;19.53;;;11.57;;
56136;SDS011;42008;52.934;5.884;2023-01-23T11:21:54;16.60;;;11.37;;
56136;SDS011;42008;52.934;5.884;2023-01-23T11:27:00;13.60;;;9.60;;
56136;SDS011;42008;52.934;5.884;2023-01-23T11:29:41;15.30;;;10.07;;
56136;SDS011;42008;52.934;5.884;2023-01-23T11:32:20;13.37;;;9.97;;
56136;SDS011;42008;52.934;5.884;2023-01-23T11:34:52;11.60;;;9.10;;
56136;SDS011;42008;52.934;5.884;2023-01-23T11:37:31;12.43;;;8.53;;
56136;SDS011;42008;52.934;5.884;2023-01-23T11:40:06;15.40;;;7.60;;
56136;SDS011;42008;52.934;5.884;2023-01-23T11:42:42;12.80;;;7.90;;
56136;SDS011;42008;52.934;5.884;2023-01-23T11:45:12;10.67;;;7.90;;
56136;SDS011;42008;52.934;5.884;2023-01-23T11:47:41;11.57;;;7.30;;
56136;SDS011;42008;52.934;5.884;2023-01-23T11:52:53;10.27;;;7.00;;
56136;SDS011;42008;52.934;5.884;2023-01-23T11:58:21;10.32;;;6.60;;
56136;SDS011;42008;52.934;5.884;2023-01-23T12:09:19;7.72;;;5.45;;
56136;SDS011;42008;52.934;5.884;2023-01-23T12:17:46;7.07;;;5.07;;
56136;SDS011;42008;52.934;5.884;2023-01-23T12:20:23;5.90;;;3.83;;
56136;SDS011;42008;52.934;5.884;2023-01-23T12:25:35;5.93;;;4.10;;
56136;SDS011;42008;52.934;5.884;2023-01-23T12:31:02;6.68;;;4.72;;
56136;SDS011;42008;52.934;5.884;2023-01-23T12:42:03;7.75;;;4.32;;
56136;SDS011;42008;52.934;5.884;2023-01-23T12:44:40;4.00;;;2.80;;
56136;SDS011;42008;52.934;5.884;2023-01-23T12:47:19;4.27;;;2.70;;
56136;SDS011;42008;52.934;5.884;2023-01-23T12:50:03;3.83;;;2.60;;
56136;SDS011;42008;52.934;5.884;2023-01-23T12:52:46;5.77;;;3.10;;
56136;SDS011;42008;52.934;5.884;2023-01-23T12:55:25;4.10;;;3.07;;
56136;SDS011;42008;52.934;5.884;2023-01-23T12:58:00;4.30;;;2.80;;
56136;SDS011;42008;52.934;5.884;2023-01-23T13:06:07;4.35;;;2.70;;
56136;SDS011;42008;52.934;5.884;2023-01-23T13:16:57;5.80;;;3.40;;
56136;SDS011;42008;52.934;5.884;2023-01-23T13:19:30;4.70;;;3.10;;
56136;SDS011;42008;52.934;5.884;2023-01-23T13:22:22;4.53;;;3.00;;
56136;SDS011;42008;52.934;5.884;2023-01-23T13:27:35;4.50;;;2.80;;
56136;SDS011;42008;52.934;5.884;2023-01-23T13:32:52;4.82;;;3.28;;
56136;SDS011;42008;52.934;5.884;2023-01-23T13:43:51;4.33;;;3.10;;
56136;SDS011;42008;52.934;5.884;2023-01-23T13:49:42;5.80;;;3.30;;
56136;SDS011;42008;52.934;5.884;2023-01-23T13:54:56;5.60;;;4.20;;
56136;SDS011;42008;52.934;5.884;2023-01-23T13:57:55;5.40;;;3.93;;
56136;SDS011;42008;52.934;5.884;2023-01-23T14:00:21;6.93;;;4.20;;
56136;SDS011;42008;52.934;5.884;2023-01-23T14:06:02;6.13;;;2.80;;
56136;SDS011;42008;52.934;5.884;2023-01-23T14:08:32;3.83;;;2.80;;
56136;SDS011;42008;52.934;5.884;2023-01-23T14:10:58;4.90;;;2.77;;
56136;SDS011;42008;52.934;5.884;2023-01-23T14:13:24;4.70;;;2.87;;
56136;SDS011;42008;52.934;5.884;2023-01-23T14:15:51;4.63;;;3.17;;
56136;SDS011;42008;52.934;5.884;2023-01-23T14:18:38;5.07;;;3.23;;
56136;SDS011;42008;52.934;5.884;2023-01-23T14:21:18;4.90;;;3.30;;
56136;SDS011;42008;52.934;5.884;2023-01-23T14:23:47;5.93;;;3.40;;
56136;SDS011;42008;52.934;5.884;2023-01-23T14:26:18;4.13;;;2.78;;
56136;SDS011;42008;52.934;5.884;2023-01-23T14:28:55;4.23;;;2.63;;
56136;SDS011;42008;52.934;5.884;2023-01-23T14:31:43;5.97;;;3.00;;
56136;SDS011;42008;52.934;5.884;2023-01-23T14:36:46;4.30;;;3.10;;
56136;SDS011;42008;52.934;5.884;2023-01-23T14:39:22;4.60;;;3.40;;
56136;SDS011;42008;52.934;5.884;2023-01-23T14:41:55;5.27;;;3.47;;
56136;SDS011;42008;52.934;5.884;2023-01-23T14:44:24;4.00;;;3.10;;
56136;SDS011;42008;52.934;5.884;2023-01-23T14:46:53;4.80;;;3.43;;
56136;SDS011;42008;52.934;5.884;2023-01-23T14:49:26;5.53;;;3.30;;
56136;SDS011;42008;52.934;5.884;2023-01-23T14:51:59;4.20;;;3.00;;
56136;SDS011;42008;52.934;5.884;2023-01-23T14:54:26;4.80;;;3.43;;
56136;SDS011;42008;52.934;5.884;2023-01-23T14:56:52;6.03;;;3.50;;
56136;SDS011;42008;52.934;5.884;2023-01-23T14:59:32;5.43;;;3.40;;
56136;SDS011;42008;52.934;5.884;2023-01-23T15:02:02;5.17;;;3.57;;
56136;SDS011;42008;52.934;5.884;2023-01-23T15:07:53;8.03;;;4.17;;
56136;SDS011;42008;52.934;5.884;2023-01-23T15:13:01;6.43;;;4.37;;
56136;SDS011;42008;52.934;5.884;2023-01-23T15:15:30;6.73;;;4.63;;
56136;SDS011;42008;52.934;5.884;2023-01-23T15:17:58;6.47;;;4.23;;
56136;SDS011;42008;52.934;5.884;2023-01-23T15:23:23;6.47;;;4.50;;
56136;SDS011;42008;52.934;5.884;2023-01-23T15:25:42;6.23;;;4.50;;
56136;SDS011;42008;52.934;5.884;2023-01-23T15:31:02;7.00;;;4.90;;
56136;SDS011;42008;52.934;5.884;2023-01-23T15:33:29;8.73;;;4.63;;
56136;SDS011;42008;52.934;5.884;2023-01-23T15:36:00;7.70;;;5.30;;
56136;SDS011;42008;52.934;5.884;2023-01-23T15:38:46;8.47;;;5.03;;
56136;SDS011;42008;52.934;5.884;2023-01-23T15:41:12;8.43;;;5.53;;
56136;SDS011;42008;52.934;5.884;2023-01-23T15:43:37;10.10;;;6.13;;
56136;SDS011;42008;52.934;5.884;2023-01-23T15:46:03;7.37;;;5.27;;
56136;SDS011;42008;52.934;5.884;2023-01-23T15:48:29;9.07;;;5.47;;
56136;SDS011;42008;52.934;5.884;2023-01-23T15:50:54;9.17;;;5.90;;
56136;SDS011;42008;52.934;5.884;2023-01-23T15:53:20;6.77;;;5.50;;
56136;SDS011;42008;52.934;5.884;2023-01-23T15:55:45;11.27;;;5.83;;
56136;SDS011;42008;52.934;5.884;2023-01-23T15:58:12;8.47;;;6.10;;
56136;SDS011;42008;52.934;5.884;2023-01-23T16:00:38;8.80;;;6.30;;
56136;SDS011;42008;52.934;5.884;2023-01-23T16:03:04;8.07;;;6.20;;
56136;SDS011;42008;52.934;5.884;2023-01-23T16:05:31;9.30;;;6.13;;
56136;SDS011;42008;52.934;5.884;2023-01-23T16:07:59;8.60;;;6.27;;
56136;SDS011;42008;52.934;5.884;2023-01-23T16:10:27;8.97;;;6.87;;
56136;SDS011;42008;52.934;5.884;2023-01-23T16:12:55;8.70;;;6.50;;
56136;SDS011;42008;52.934;5.884;2023-01-23T16:15:25;9.27;;;6.43;;
56136;SDS011;42008;52.934;5.884;2023-01-23T16:17:52;9.00;;;7.00;;
56136;SDS011;42008;52.934;5.884;2023-01-23T16:22:48;9.50;;;7.63;;
56136;SDS011;42008;52.934;5.884;2023-01-23T16:25:17;8.50;;;7.00;;
56136;SDS011;42008;52.934;5.884;2023-01-23T16:27:45;9.30;;;7.17;;
56136;SDS011;42008;52.934;5.884;2023-01-23T16:30:14;10.20;;;7.40;;
56136;SDS011;42008;52.934;5.884;2023-01-23T16:32:44;9.83;;;7.13;;
56136;SDS011;42008;52.934;5.884;2023-01-23T16:35:10;9.63;;;7.57;;
56136;SDS011;42008;52.934;5.884;2023-01-23T16:37:38;11.23;;;8.53;;
56136;SDS011;42008;52.934;5.884;2023-01-23T16:40:14;9.30;;;7.13;;